Time;durP1;ratioP1;P1;durP2;ratioP2;P2;SDS_P1;SDS_P2;PMS_P1;PMS_P2;Temp;Humidity;BMP_temperature;BMP_pressure;BME280_temperature;BME280_humidity;BME280_pressure;Samples;Min_cycle;Max_cycle;Signal;HPM_P1;HPM_P2
2023/12/29 00:00:48;;;;;;;4.45;1.17;;;10.90;99.90;;;;;;10361280;28;20422;-68
2023/12/29 00:05:49;;;;;;;6.32;1.50;;;11.00;99.90;;;;;;10369276;28;20053;-67
2023/12/29 00:10:49;;;;;;;4.80;1.20;;;10.90;99.90;;;;;;10363328;28;20092;-65
2023/12/29 00:15:56;;;;;;;2.85;0.90;;;10.90;99.90;;;;;;10356698;28;20018;-66
2023/12/29 00:20:57;;;;;;;3.92;1.17;;;10.90;99.90;;;;;;10367518;28;20156;-67
2023/12/29 00:25:57;;;;;;;7.25;1.52;;;11.00;99.90;;;;;;10362588;28;20363;-68
2023/12/29 00:30:58;;;;;;;5.68;1.50;;;10.90;99.90;;;;;;10368803;28;20547;-67
2023/12/29 00:35:58;;;;;;;5.20;1.10;;;10.90;99.90;;;;;;10361089;28;20505;-68
2023/12/29 00:40:59;;;;;;;6.00;1.27;;;10.90;99.90;;;;;;10361426;28;20014;-67
2023/12/29 00:46:04;;;;;;;2.50;1.10;;;10.90;99.90;;;;;;10366566;28;20406;-66
2023/12/29 00:51:05;;;;;;;7.50;1.48;;;10.90;99.90;;;;;;10364412;28;20441;-68
2023/12/29 00:56:12;;;;;;;6.93;1.30;;;10.90;99.90;;;;;;10369772;28;20092;-65
2023/12/29 01:01:13;;;;;;;7.25;1.75;;;10.90;99.90;;;;;;10361636;28;20362;-65
2023/12/29 01:06:13;;;;;;;5.95;1.35;;;10.90;99.90;;;;;;10372719;28;20025;-68
2023/12/29 01:11:14;;;;;;;6.78;1.20;;;10.90;99.90;;;;;;10367885;28;20506;-67
2023/12/29 01:16:14;;;;;;;4.18;2.00;;;10.90;99.90;;;;;;10356916;28;20045;-67
2023/12/29 01:21:15;;;;;;;6.57;1.48;;;10.90;99.90;;;;;;10367206;28;20173;-66
2023/12/29 01:26:16;;;;;;;4.60;1.17;;;10.90;99.90;;;;;;10371488;28;20041;-67
2023/12/29 01:31:16;;;;;;;4.95;1.80;;;10.90;99.90;;;;;;10369334;28;20033;-67
2023/12/29 01:36:18;;;;;;;3.35;1.10;;;10.90;99.90;;;;;;10362761;28;20022;-67
2023/12/29 01:41:22;;;;;;;4.10;1.20;;;10.90;99.90;;;;;;10367199;28;20022;-66
2023/12/29 01:46:28;;;;;;;6.88;1.65;;;10.90;99.90;;;;;;10365370;28;20404;-66
2023/12/29 01:51:29;;;;;;;4.15;1.45;;;10.80;99.90;;;;;;10368848;28;20493;-66
2023/12/29 01:56:30;;;;;;;4.35;1.15;;;10.80;99.90;;;;;;10355704;28;20061;-65
2023/12/29 02:01:31;;;;;;;6.85;1.48;;;10.80;99.90;;;;;;10361141;28;20282;-65
2023/12/29 02:06:34;;;;;;;3.88;1.70;;;10.80;99.90;;;;;;10364515;28;20528;-66
2023/12/29 02:11:35;;;;;;;5.78;1.20;;;10.80;99.90;;;;;;10376200;28;20022;-67
2023/12/29 02:17:05;;;;;;;5.97;1.65;;;10.80;99.90;;;;;;10362919;28;20158;-66
2023/12/29 02:22:07;;;;;;;7.18;1.80;;;10.80;99.90;;;;;;10376254;28;20386;-67
2023/12/29 02:27:46;;;;;;;5.32;1.65;;;10.80;99.90;;;;;;10365788;28;20113;-66
2023/12/29 02:32:47;;;;;;;1.42;0.80;;;10.80;99.90;;;;;;10362727;28;20577;-66
2023/12/29 02:37:48;;;;;;;3.22;1.10;;;10.80;99.90;;;;;;10372767;28;20670;-66
2023/12/29 02:42:49;;;;;;;6.20;1.35;;;10.80;99.90;;;;;;10374870;28;20022;-67
2023/12/29 02:47:50;;;;;;;2.80;1.17;;;10.80;99.90;;;;;;10373679;28;20017;-66
2023/12/29 02:52:51;;;;;;;3.13;1.35;;;10.80;99.90;;;;;;10368945;28;20022;-66
2023/12/29 02:57:51;;;;;;;4.10;1.55;;;10.80;99.90;;;;;;10359886;28;20040;-66
2023/12/29 03:02:52;;;;;;;4.57;1.60;;;10.80;99.90;;;;;;10368464;28;20614;-67
2023/12/29 03:07:52;;;;;;;5.88;1.38;;;10.80;99.90;;;;;;10361073;28;20389;-68
2023/12/29 03:12:53;;;;;;;6.15;2.00;;;10.80;99.90;;;;;;10359663;28;20609;-66
2023/12/29 03:17:54;;;;;;;6.60;1.58;;;10.80;99.90;;;;;;10349682;28;20061;-67
2023/12/29 03:22:55;;;;;;;5.35;1.25;;;10.80;99.90;;;;;;10355272;28;20083;-65
2023/12/29 03:27:55;;;;;;;3.80;1.50;;;10.80;99.90;;;;;;10366022;28;20453;-67
2023/12/29 03:32:56;;;;;;;5.15;1.42;;;10.80;99.90;;;;;;10363494;28;20053;-67
2023/12/29 03:37:57;;;;;;;4.68;1.50;;;10.80;99.90;;;;;;10349040;28;20405;-67
2023/12/29 03:42:57;;;;;;;9.35;1.55;;;10.80;99.90;;;;;;10358715;28;20577;-67
2023/12/29 03:47:58;;;;;;;4.07;1.50;;;10.80;99.90;;;;;;10357813;28;20425;-66
2023/12/29 03:52:58;;;;;;;7.35;1.85;;;10.30;99.90;;;;;;10367374;28;20022;-68
2023/12/29 03:58:00;;;;;;;4.50;1.38;;;10.80;99.90;;;;;;10365572;28;20120;-66
2023/12/29 04:03:00;;;;;;;2.80;1.40;;;10.80;99.90;;;;;;10352876;28;20494;-67
2023/12/29 04:08:01;;;;;;;4.35;1.33;;;10.70;99.90;;;;;;10364948;28;20032;-67
2023/12/29 04:13:02;;;;;;;2.90;1.27;;;10.70;99.90;;;;;;10357059;28;20117;-67
2023/12/29 04:18:03;;;;;;;6.65;1.48;;;10.70;99.90;;;;;;10364168;28;20510;-67
2023/12/29 04:23:05;;;;;;;4.88;1.33;;;10.70;99.90;;;;;;10360120;28;20057;-67
2023/12/29 04:28:09;;;;;;;5.43;1.45;;;10.70;99.90;;;;;;10367701;28;20026;-66
2023/12/29 04:33:09;;;;;;;7.88;1.60;;;10.70;99.90;;;;;;10345432;28;20026;-67
2023/12/29 04:38:10;;;;;;;4.95;1.58;;;10.70;99.90;;;;;;10360972;28;20018;-67
2023/12/29 04:43:10;;;;;;;9.05;1.77;;;10.70;99.90;;;;;;10362349;28;20033;-67
2023/12/29 04:48:12;;;;;;;7.10;1.35;;;10.70;99.90;;;;;;10361888;28;20025;-67
2023/12/29 04:53:12;;;;;;;3.38;1.45;;;10.70;99.90;;;;;;10355304;28;20509;-67
2023/12/29 04:58:13;;;;;;;5.22;1.70;;;10.70;99.90;;;;;;10358853;28;20033;-68
2023/12/29 05:03:13;;;;;;;8.55;2.15;;;10.70;99.90;;;;;;10364060;28;20064;-67
2023/12/29 05:08:14;;;;;;;5.32;1.67;;;10.70;99.90;;;;;;10342484;28;20038;-67
2023/12/29 05:13:14;;;;;;;5.47;1.30;;;10.70;99.90;;;;;;10362185;28;20022;-68
2023/12/29 05:18:15;;;;;;;7.88;2.35;;;10.70;99.90;;;;;;10357202;28;20046;-70
2023/12/29 05:23:15;;;;;;;6.35;1.40;;;10.70;99.90;;;;;;10347178;28;20378;-67
2023/12/29 05:28:16;;;;;;;10.77;1.60;;;10.70;99.90;;;;;;10344981;28;20148;-67
2023/12/29 05:33:16;;;;;;;5.53;1.40;;;10.70;99.90;;;;;;10360828;28;20041;-70
2023/12/29 05:38:17;;;;;;;5.60;1.50;;;10.70;99.90;;;;;;10357498;28;20030;-68
2023/12/29 05:43:18;;;;;;;6.60;1.27;;;10.70;99.90;;;;;;10362874;28;20030;-69
2023/12/29 05:48:19;;;;;;;10.13;1.85;;;10.70;99.90;;;;;;10378930;28;20508;-68
2023/12/29 05:53:20;;;;;;;7.82;2.15;;;10.70;99.90;;;;;;10371690;28;20026;-66
2023/12/29 05:58:20;;;;;;;9.30;2.50;;;10.70;99.90;;;;;;10364812;28;20494;-68
2023/12/29 06:03:21;;;;;;;6.80;2.38;;;10.70;99.90;;;;;;10367684;28;20033;-69
2023/12/29 06:08:21;;;;;;;11.82;2.38;;;10.70;99.90;;;;;;10382728;28;20489;-67
2023/12/29 06:13:23;;;;;;;9.57;2.47;;;10.70;99.90;;;;;;10371430;28;20029;-68
2023/12/29 06:18:24;;;;;;;5.78;1.50;;;10.70;99.90;;;;;;10376493;28;20042;-66
2023/12/29 06:23:27;;;;;;;7.45;1.90;;;10.70;99.90;;;;;;10365491;28;20045;-67
2023/12/29 06:28:28;;;;;;;10.27;2.00;;;10.70;99.90;;;;;;10369886;28;20501;-68
2023/12/29 06:33:28;;;;;;;7.07;1.65;;;10.70;99.90;;;;;;10373342;28;20020;-67
2023/12/29 06:38:30;;;;;;;15.48;2.15;;;10.70;99.90;;;;;;10373130;28;20101;-67
2023/12/29 06:43:30;;;;;;;8.27;2.22;;;10.70;99.90;;;;;;10374034;28;20046;-68
2023/12/29 06:48:31;;;;;;;9.68;1.92;;;10.70;99.90;;;;;;10367862;28;20538;-66
2023/12/29 06:53:32;;;;;;;7.90;2.10;;;10.70;99.90;;;;;;10357365;28;20482;-68
2023/12/29 06:58:32;;;;;;;8.20;1.65;;;10.70;99.90;;;;;;10366045;28;20018;-67
2023/12/29 07:03:33;;;;;;;11.80;2.30;;;10.70;99.90;;;;;;10353684;28;20063;-68
2023/12/29 07:08:34;;;;;;;7.07;1.65;;;10.70;99.90;;;;;;10362707;28;20076;-68
2023/12/29 07:13:36;;;;;;;9.85;1.70;;;10.70;99.90;;;;;;10348651;28;20489;-65
2023/12/29 07:18:37;;;;;;;10.50;2.55;;;10.70;99.90;;;;;;10357945;28;20030;-67
2023/12/29 07:23:38;;;;;;;7.50;1.50;;;10.70;99.90;;;;;;10358745;28;20453;-68
2023/12/29 07:28:39;;;;;;;11.43;2.00;;;10.70;99.90;;;;;;10369252;28;20026;-68
2023/12/29 07:33:39;;;;;;;7.28;1.80;;;10.70;99.90;;;;;;10358326;28;20011;-67
2023/12/29 07:38:40;;;;;;;9.07;2.40;;;10.70;99.90;;;;;;10345016;28;20026;-68
2023/12/29 07:43:41;;;;;;;7.82;2.20;;;10.70;99.90;;;;;;10342311;28;20030;-67
2023/12/29 07:48:41;;;;;;;7.03;1.70;;;10.70;99.90;;;;;;10359230;28;20028;-69
2023/12/29 07:53:42;;;;;;;11.57;1.75;;;10.70;99.90;;;;;;10357502;28;20084;-66
2023/12/29 07:58:43;;;;;;;8.43;1.63;;;10.70;99.90;;;;;;10359822;28;20025;-67
2023/12/29 08:03:43;;;;;;;4.63;1.40;;;10.70;99.90;;;;;;10357739;28;20042;-66
2023/12/29 08:08:44;;;;;;;9.32;2.08;;;10.70;99.90;;;;;;10352996;28;20015;-66
2023/12/29 08:13:47;;;;;;;6.72;1.50;;;10.70;99.90;;;;;;10333247;28;20023;-67
2023/12/29 08:18:50;;;;;;;7.22;1.73;;;10.70;99.90;;;;;;10355329;28;20026;-67
2023/12/29 08:23:50;;;;;;;7.43;1.73;;;10.70;99.90;;;;;;10356616;28;20481;-67
2023/12/29 08:28:51;;;;;;;7.40;1.60;;;10.70;99.90;;;;;;10360925;28;20083;-66
2023/12/29 08:33:52;;;;;;;12.68;2.55;;;10.70;99.90;;;;;;10362624;28;20129;-68
2023/12/29 08:38:52;;;;;;;12.55;1.90;;;10.70;99.90;;;;;;10357403;28;20401;-67
2023/12/29 08:43:53;;;;;;;8.13;1.45;;;10.70;99.90;;;;;;10360919;28;20029;-68
2023/12/29 08:48:54;;;;;;;7.57;1.75;;;10.70;99.90;;;;;;10358352;28;20018;-69
2023/12/29 08:53:55;;;;;;;9.70;1.42;;;10.70;99.90;;;;;;10363540;28;20393;-69
2023/12/29 08:58:56;;;;;;;8.52;1.75;;;10.70;99.90;;;;;;10356147;28;20094;-69
2023/12/29 09:03:56;;;;;;;5.18;1.65;;;10.70;99.90;;;;;;10360830;28;20087;-69
2023/12/29 09:08:58;;;;;;;4.95;1.45;;;10.70;99.90;;;;;;10362898;28;20022;-68
2023/12/29 09:13:58;;;;;;;5.57;1.17;;;10.70;99.90;;;;;;10359578;28;20072;-69
2023/12/29 09:18:59;;;;;;;5.70;1.25;;;10.70;99.90;;;;;;10369884;28;20084;-69
2023/12/29 09:23:59;;;;;;;8.00;1.73;;;10.70;99.90;;;;;;10366147;28;20022;-70
2023/12/29 09:29:00;;;;;;;7.35;1.40;;;10.70;99.90;;;;;;10346864;28;20060;-68
2023/12/29 09:34:01;;;;;;;7.10;1.40;;;10.70;99.90;;;;;;10372613;28;20022;-69
2023/12/29 09:39:02;;;;;;;6.22;1.77;;;10.70;99.90;;;;;;10364439;28;20029;-69
2023/12/29 09:44:05;;;;;;;5.95;1.48;;;10.70;99.90;;;;;;10365207;28;20087;-69
2023/12/29 09:49:08;;;;;;;7.20;1.58;;;10.70;99.90;;;;;;10366931;28;20521;-69
2023/12/29 09:54:10;;;;;;;4.03;1.40;;;10.70;99.90;;;;;;10367488;28;20470;-69
2023/12/29 09:59:13;;;;;;;7.88;1.60;;;10.70;99.90;;;;;;10367596;28;20416;-69
2023/12/29 10:04:14;;;;;;;4.30;1.20;;;10.70;99.90;;;;;;10366270;28;20038;-69
2023/12/29 10:09:16;;;;;;;5.22;1.33;;;10.70;99.90;;;;;;10369433;28;20029;-69
2023/12/29 10:14:50;;;;;;;4.18;1.27;;;10.70;99.90;;;;;;10371296;28;20042;-69
2023/12/29 10:20:06;;;;;;;4.50;1.40;;;10.70;99.90;;;;;;10371669;28;20447;-69
2023/12/29 10:25:08;;;;;;;4.47;1.98;;;10.60;99.90;;;;;;10368370;28;20470;-69
2023/12/29 10:30:11;;;;;;;2.72;1.27;;;10.70;99.90;;;;;;10368311;28;20038;-69
2023/12/29 10:35:12;;;;;;;3.22;1.67;;;10.60;99.90;;;;;;10371076;28;20241;-69
2023/12/29 10:40:19;;;;;;;3.58;0.98;;;10.60;99.90;;;;;;10368648;28;20542;-69
2023/12/29 10:45:20;;;;;;;2.97;0.90;;;10.60;99.90;;;;;;10368272;28;20053;-69
2023/12/29 10:50:21;;;;;;;2.92;0.90;;;10.70;99.90;;;;;;10363824;28;20010;-70
2023/12/29 10:55:23;;;;;;;4.93;1.05;;;10.60;99.90;;;;;;10371046;28;20033;-69
2023/12/29 11:00:30;;;;;;;3.58;0.98;;;10.60;99.90;;;;;;10369307;28;20444;-69
2023/12/29 11:05:30;;;;;;;2.47;0.93;;;10.60;99.90;;;;;;10372477;28;20117;-69
2023/12/29 11:10:31;;;;;;;4.50;0.80;;;10.60;99.90;;;;;;10365089;28;20553;-69
2023/12/29 11:15:33;;;;;;;6.90;1.30;;;10.70;99.90;;;;;;10365935;28;20331;-69
2023/12/29 11:20:35;;;;;;;2.97;0.77;;;10.70;99.90;;;;;;10378773;28;20014;-69
2023/12/29 11:25:36;;;;;;;3.75;1.73;;;10.70;99.90;;;;;;10372329;28;20066;-69
2023/12/29 11:30:39;;;;;;;4.78;1.00;;;10.70;99.90;;;;;;10365514;28;20576;-68
2023/12/29 11:35:46;;;;;;;4.70;1.15;;;10.70;99.90;;;;;;10372546;28;20273;-69
2023/12/29 11:41:07;;;;;;;4.20;1.30;;;10.70;99.90;;;;;;10368464;28;20029;-69
2023/12/29 11:46:43;;;;;;;4.50;1.05;;;10.70;99.90;;;;;;10366593;28;20100;-69
2023/12/29 11:51:48;;;;;;;13.43;1.38;;;10.70;99.90;;;;;;10354973;28;20037;-69
2023/12/29 11:56:49;;;;;;;6.03;1.13;;;10.70;99.90;;;;;;10370492;28;20492;-70
2023/12/29 12:01:52;;;;;;;6.78;1.90;;;10.70;99.90;;;;;;10367955;28;20026;-69
2023/12/29 12:06:52;;;;;;;6.45;1.33;;;10.70;99.90;;;;;;10367484;28;20030;-69
2023/12/29 12:11:53;;;;;;;4.88;0.90;;;10.70;99.90;;;;;;10367120;28;20475;-69
2023/12/29 12:16:53;;;;;;;7.32;1.20;;;10.70;99.90;;;;;;10372130;28;20570;-69
2023/12/29 12:21:57;;;;;;;3.72;1.33;;;10.80;99.90;;;;;;10366556;28;20022;-69
2023/12/29 12:26:58;;;;;;;3.20;0.85;;;10.80;99.90;;;;;;10366523;28;20066;-68
2023/12/29 12:31:59;;;;;;;2.80;0.88;;;10.80;99.90;;;;;;10359822;28;20021;-69
2023/12/29 12:37:03;;;;;;;5.85;1.70;;;10.80;99.90;;;;;;10357043;28;20091;-68
2023/12/29 12:42:04;;;;;;;3.53;1.05;;;10.80;99.90;;;;;;10366100;28;20029;-68
2023/12/29 12:47:09;;;;;;;8.70;1.65;;;10.80;99.90;;;;;;10366811;28;20018;-68
2023/12/29 12:52:10;;;;;;;4.13;1.08;;;10.80;99.90;;;;;;10374078;28;20028;-68
2023/12/29 12:57:11;;;;;;;9.40;1.95;;;10.80;99.90;;;;;;10370764;28;20452;-68
2023/12/29 13:02:12;;;;;;;4.80;1.70;;;10.80;99.90;;;;;;10370455;28;20589;-68
2023/12/29 13:07:16;;;;;;;5.95;1.02;;;10.80;99.90;;;;;;10349531;28;20026;-67
2023/12/29 13:12:16;;;;;;;3.47;1.00;;;10.80;99.90;;;;;;10365560;28;20018;-70
2023/12/29 13:17:17;;;;;;;4.78;1.08;;;10.80;99.90;;;;;;10360717;28;20038;-72
2023/12/29 13:22:18;;;;;;;5.90;1.33;;;10.80;99.90;;;;;;10359210;28;20088;-70
2023/12/29 13:27:20;;;;;;;6.35;1.52;;;10.80;99.90;;;;;;10358059;28;20105;-70
2023/12/29 13:32:27;;;;;;;4.22;1.23;;;10.80;99.90;;;;;;10368857;28;20072;-70
2023/12/29 13:37:34;;;;;;;5.07;1.42;;;10.80;99.90;;;;;;10341994;28;20033;-70
2023/12/29 13:42:36;;;;;;;3.50;0.93;;;10.80;99.90;;;;;;10360740;28;20037;-68
2023/12/29 13:47:38;;;;;;;5.97;0.90;;;10.80;99.90;;;;;;10355782;28;20386;-72
2023/12/29 13:52:40;;;;;;;3.65;1.42;;;10.80;99.90;;;;;;10366527;28;20055;-70
2023/12/29 13:57:40;;;;;;;6.70;1.13;;;10.80;99.90;;;;;;10364696;28;20401;-70
2023/12/29 14:02:43;;;;;;;5.63;1.23;;;10.80;99.90;;;;;;10365603;28;20033;-70
2023/12/29 14:07:59;;;;;;;4.85;1.20;;;10.80;99.90;;;;;;10348473;28;20113;-70
2023/12/29 14:13:10;;;;;;;4.97;1.10;;;10.80;99.90;;;;;;10367360;28;20238;-70
2023/12/29 14:18:42;;;;;;;3.50;1.00;;;10.80;99.90;;;;;;10365011;28;20037;-70
2023/12/29 14:23:42;;;;;;;6.15;0.82;;;10.80;99.90;;;;;;10368464;28;20037;-70
2023/12/29 14:28:43;;;;;;;6.30;1.00;;;10.70;99.90;;;;;;10368172;28;20022;-70
2023/12/29 14:33:43;;;;;;;4.88;1.02;;;10.70;99.90;;;;;;10363400;28;20033;-68
2023/12/29 14:38:44;;;;;;;2.92;0.82;;;10.70;99.90;;;;;;10342860;28;20046;-69
2023/12/29 14:43:45;;;;;;;5.88;1.23;;;10.70;99.90;;;;;;10370597;28;20014;-69
2023/12/29 14:48:45;;;;;;;3.55;1.30;;;10.70;99.90;;;;;;10352098;28;20548;-68
2023/12/29 14:53:48;;;;;;;6.45;1.20;;;10.70;99.90;;;;;;10370339;28;20101;-70
2023/12/29 14:58:48;;;;;;;4.68;1.05;;;10.70;99.90;;;;;;10368858;28;20022;-70
2023/12/29 15:03:49;;;;;;;3.63;0.98;;;11.00;99.90;;;;;;10365538;28;20114;-70
2023/12/29 15:08:49;;;;;;;6.07;1.45;;;10.90;99.90;;;;;;10371580;28;20034;-70
2023/12/29 15:13:50;;;;;;;6.70;1.20;;;10.90;99.90;;;;;;10373627;28;20025;-70
2023/12/29 15:18:51;;;;;;;5.47;0.82;;;10.90;99.90;;;;;;10347683;28;20017;-70
2023/12/29 15:23:51;;;;;;;4.85;1.25;;;10.90;99.90;;;;;;10371705;28;20100;-69
2023/12/29 15:28:52;;;;;;;4.93;1.58;;;10.90;99.90;;;;;;10375649;28;20056;-69
2023/12/29 15:33:52;;;;;;;5.10;1.13;;;10.80;99.90;;;;;;10360913;28;20068;-70
2023/12/29 15:38:53;;;;;;;3.47;1.10;;;10.80;99.90;;;;;;10348991;28;20049;-69
2023/12/29 15:43:54;;;;;;;4.60;0.70;;;10.80;99.90;;;;;;10375431;28;20569;-68
2023/12/29 15:48:57;;;;;;;6.80;1.10;;;10.80;99.90;;;;;;10364909;28;20029;-69
2023/12/29 15:53:57;;;;;;;3.95;0.88;;;10.80;99.90;;;;;;10361527;28;20112;-69
2023/12/29 15:58:58;;;;;;;3.80;1.33;;;10.80;99.90;;;;;;10353452;28;20026;-68
2023/12/29 16:03:59;;;;;;;5.22;0.82;;;10.70;99.90;;;;;;10349768;28;20030;-71
2023/12/29 16:08:59;;;;;;;4.53;0.90;;;10.70;99.90;;;;;;10354879;28;20021;-69
2023/12/29 16:14:00;;;;;;;2.70;0.73;;;10.70;99.90;;;;;;10364509;28;20533;-71
2023/12/29 16:19:00;;;;;;;5.40;1.60;;;10.60;99.90;;;;;;10348528;28;20548;-70
2023/12/29 16:24:02;;;;;;;2.38;1.40;;;10.60;99.90;;;;;;10362108;28;20478;-70
2023/12/29 16:29:04;;;;;;;4.20;1.70;;;10.80;99.90;;;;;;10360843;28;20030;-70
2023/12/29 16:34:04;;;;;;;5.07;1.73;;;10.90;99.90;;;;;;10363098;28;20397;-70
2023/12/29 16:39:05;;;;;;;6.47;1.63;;;10.90;99.90;;;;;;10362301;28;20030;-70
2023/12/29 16:44:06;;;;;;;3.97;1.27;;;10.80;99.90;;;;;;10360438;28;20030;-69
2023/12/29 16:49:07;;;;;;;6.07;1.45;;;10.70;99.90;;;;;;10365793;28;20040;-68
2023/12/29 16:54:07;;;;;;;4.32;1.35;;;10.70;99.90;;;;;;10364135;28;20014;-68
2023/12/29 16:59:08;;;;;;;2.35;1.02;;;10.70;99.90;;;;;;10359256;28;20084;-69
2023/12/29 17:04:08;;;;;;;3.67;1.00;;;10.60;99.90;;;;;;10360439;28;20386;-69
2023/12/29 17:09:09;;;;;;;1.30;0.80;;;10.60;99.90;;;;;;10363074;28;20033;-68
2023/12/29 17:14:10;;;;;;;3.00;1.13;;;10.60;99.90;;;;;;10355571;28;20052;-69
2023/12/29 17:19:11;;;;;;;3.05;0.93;;;10.60;99.90;;;;;;10359557;28;20025;-69
2023/12/29 17:24:12;;;;;;;2.90;1.02;;;10.60;99.90;;;;;;10346815;28;20046;-69
2023/12/29 17:29:12;;;;;;;3.03;1.00;;;10.60;99.90;;;;;;10350897;28;20053;-68
2023/12/29 17:34:13;;;;;;;1.88;1.13;;;10.60;99.90;;;;;;10356959;28;20677;-69
2023/12/29 17:39:13;;;;;;;3.55;0.85;;;10.60;99.90;;;;;;10359288;28;20117;-74
2023/12/29 17:44:14;;;;;;;4.78;1.10;;;10.60;99.90;;;;;;10353423;28;20076;-72
2023/12/29 17:49:16;;;;;;;4.82;1.27;;;10.70;99.90;;;;;;10340182;28;20034;-69
2023/12/29 17:54:17;;;;;;;3.30;1.17;;;10.70;99.90;;;;;;10356600;28;20076;-69
2023/12/29 17:59:20;;;;;;;2.20;0.90;;;10.60;99.90;;;;;;10358402;28;20447;-69
2023/12/29 18:04:21;;;;;;;5.30;1.17;;;10.60;99.90;;;;;;10362927;28;20425;-71
2023/12/29 18:09:22;;;;;;;5.90;1.27;;;10.60;99.90;;;;;;10367825;28;20029;-71
2023/12/29 18:14:25;;;;;;;5.25;1.45;;;10.60;99.90;;;;;;10347764;28;20018;-72
2023/12/29 18:19:25;;;;;;;3.30;1.30;;;10.60;99.90;;;;;;10334542;28;20486;-72
2023/12/29 18:24:26;;;;;;;4.55;1.50;;;10.60;99.90;;;;;;10358004;28;20041;-70
2023/12/29 18:29:27;;;;;;;5.78;1.10;;;10.60;99.90;;;;;;10356078;28;20036;-71
2023/12/29 18:34:28;;;;;;;3.70;1.20;;;10.50;99.90;;;;;;10363020;28;20026;-71
2023/12/29 18:39:28;;;;;;;4.15;1.77;;;10.50;99.90;;;;;;10353128;28;20034;-71
2023/12/29 18:44:31;;;;;;;5.80;1.58;;;10.50;99.90;;;;;;10342482;28;20080;-71
2023/12/29 18:49:31;;;;;;;3.00;1.10;;;10.50;99.90;;;;;;10364869;28;20051;-71
2023/12/29 18:54:32;;;;;;;3.03;1.55;;;10.50;99.90;;;;;;10353408;28;20026;-71
2023/12/29 18:59:33;;;;;;;5.20;1.40;;;10.40;99.90;;;;;;10356583;28;20027;-71
2023/12/29 19:04:33;;;;;;;3.88;1.20;;;10.40;99.90;;;;;;10357736;28;20482;-71
2023/12/29 19:09:34;;;;;;;6.32;1.25;;;10.40;99.90;;;;;;10364986;28;20023;-71
2023/12/29 19:14:35;;;;;;;3.65;0.95;;;10.40;99.90;;;;;;10367174;28;20500;-71
2023/12/29 19:19:36;;;;;;;6.90;1.50;;;10.40;99.90;;;;;;10357880;28;20026;-71
2023/12/29 19:24:38;;;;;;;4.07;1.20;;;10.40;99.90;;;;;;10363281;28;20029;-71
2023/12/29 19:29:42;;;;;;;4.18;1.73;;;10.30;99.90;;;;;;10358266;28;20026;-71
2023/12/29 19:34:43;;;;;;;4.70;0.95;;;10.30;99.90;;;;;;10366050;28;20026;-71
2023/12/29 19:39:43;;;;;;;6.40;1.10;;;10.30;99.90;;;;;;10361878;28;20018;-71
2023/12/29 19:44:44;;;;;;;5.30;1.30;;;10.30;99.90;;;;;;10357955;28;20048;-70
2023/12/29 19:49:44;;;;;;;4.68;1.13;;;10.30;99.90;;;;;;10361822;28;20045;-71
2023/12/29 19:54:45;;;;;;;6.22;1.70;;;10.30;99.90;;;;;;10359895;28;20117;-71
2023/12/29 19:59:45;;;;;;;3.30;1.00;;;10.30;99.90;;;;;;10360909;28;20057;-71
2023/12/29 20:04:46;;;;;;;4.80;1.35;;;10.30;99.90;;;;;;10362807;28;20022;-71
2023/12/29 20:09:47;;;;;;;3.25;0.80;;;10.30;99.90;;;;;;10353752;28;20025;-71
2023/12/29 20:14:51;;;;;;;5.60;1.00;;;10.20;99.90;;;;;;10347128;28;20469;-72
2023/12/29 20:19:51;;;;;;;2.40;1.10;;;10.20;99.90;;;;;;10345350;28;20082;-70
2023/12/29 20:24:52;;;;;;;6.22;1.67;;;10.20;99.90;;;;;;10364241;28;20078;-71
2023/12/29 20:29:53;;;;;;;3.20;1.10;;;10.20;99.90;;;;;;10362801;28;20033;-71
2023/12/29 20:34:53;;;;;;;3.72;1.20;;;10.20;99.90;;;;;;10364218;28;20485;-71
2023/12/29 20:39:55;;;;;;;6.07;1.40;;;10.20;99.90;;;;;;10335904;28;20084;-71
2023/12/29 20:44:57;;;;;;;2.63;1.05;;;10.10;99.90;;;;;;10364427;28;20026;-69
2023/12/29 20:49:57;;;;;;;5.22;1.15;;;10.10;99.90;;;;;;10361550;28;20088;-69
2023/12/29 20:54:58;;;;;;;3.92;1.08;;;10.10;99.90;;;;;;10354384;28;20034;-69
2023/12/29 21:00:00;;;;;;;4.38;1.45;;;10.10;99.90;;;;;;10352952;28;20041;-69
2023/12/29 21:05:03;;;;;;;4.82;1.83;;;10.10;99.90;;;;;;10363056;28;20018;-69
2023/12/29 21:10:04;;;;;;;2.78;1.23;;;10.10;99.90;;;;;;10366621;28;20025;-69
2023/12/29 21:15:06;;;;;;;3.63;1.42;;;10.10;99.90;;;;;;10359318;28;20025;-69
2023/12/29 21:20:07;;;;;;;3.40;1.40;;;10.10;99.90;;;;;;10363343;28;20103;-69
2023/12/29 21:25:08;;;;;;;3.25;1.45;;;10.10;99.90;;;;;;10343682;28;20482;-69
2023/12/29 21:30:11;;;;;;;3.83;1.80;;;10.10;99.90;;;;;;10357673;28;20116;-69
2023/12/29 21:35:12;;;;;;;5.32;1.88;;;10.00;99.90;;;;;;10341870;28;20045;-69
2023/12/29 21:40:12;;;;;;;5.88;2.03;;;10.00;99.90;;;;;;10360295;28;20438;-70
2023/12/29 21:45:14;;;;;;;4.35;1.45;;;10.00;99.90;;;;;;10360330;28;20030;-69
2023/12/29 21:50:15;;;;;;;6.30;2.08;;;10.00;99.90;;;;;;10365334;28;20116;-69
2023/12/29 21:55:19;;;;;;;5.03;1.90;;;10.00;99.90;;;;;;10359064;28;20038;-69
2023/12/29 22:00:19;;;;;;;3.42;1.60;;;10.00;99.90;;;;;;10364690;28;20025;-69
2023/12/29 22:05:20;;;;;;;4.95;1.60;;;10.00;99.90;;;;;;10358177;28;20034;-69
2023/12/29 22:10:20;;;;;;;4.05;1.85;;;10.00;99.90;;;;;;10336598;28;20038;-69
2023/12/29 22:15:21;;;;;;;3.60;1.40;;;10.00;99.90;;;;;;10356839;28;20026;-68
2023/12/29 22:20:21;;;;;;;2.58;1.20;;;10.00;99.90;;;;;;10357351;28;20034;-68
2023/12/29 22:25:22;;;;;;;3.83;1.35;;;10.00;99.90;;;;;;10363237;28;20049;-69
2023/12/29 22:30:23;;;;;;;4.45;1.20;;;10.00;99.90;;;;;;10366558;28;20077;-67
2023/12/29 22:35:23;;;;;;;4.50;1.40;;;10.00;99.90;;;;;;10370798;28;20026;-68
2023/12/29 22:40:24;;;;;;;3.22;1.10;;;10.00;99.90;;;;;;10373895;28;20037;-68
2023/12/29 22:45:26;;;;;;;6.50;1.20;;;9.90;99.90;;;;;;10372857;28;20022;-68
2023/12/29 22:50:27;;;;;;;1.95;1.10;;;9.90;99.90;;;;;;10360113;28;20025;-69
2023/12/29 22:55:28;;;;;;;3.92;1.27;;;9.90;99.90;;;;;;10360612;28;20117;-68
2023/12/29 23:00:30;;;;;;;3.55;1.15;;;9.90;99.90;;;;;;10360115;28;20184;-68
2023/12/29 23:05:32;;;;;;;2.67;1.10;;;9.90;99.90;;;;;;10345305;28;20026;-68
2023/12/29 23:10:32;;;;;;;5.53;1.20;;;9.90;99.90;;;;;;10361337;28;20113;-68
2023/12/29 23:15:36;;;;;;;2.22;0.85;;;9.90;99.90;;;;;;10359886;28;20506;-67
2023/12/29 23:20:36;;;;;;;3.40;0.90;;;9.90;99.90;;;;;;10365135;28;20026;-68
2023/12/29 23:25:37;;;;;;;4.43;0.90;;;9.90;99.90;;;;;;10365558;28;20425;-69
2023/12/29 23:30:38;;;;;;;1.65;0.88;;;9.90;99.90;;;;;;10364026;28;20494;-67
2023/12/29 23:35:39;;;;;;;2.35;0.80;;;9.90;99.90;;;;;;10360230;28;20324;-67
2023/12/29 23:40:39;;;;;;;3.60;0.98;;;9.80;99.90;;;;;;10362952;28;20512;-67
2023/12/29 23:45:40;;;;;;;2.35;0.65;;;9.80;99.90;;;;;;10361105;28;20116;-68
2023/12/29 23:50:40;;;;;;;3.90;0.98;;;9.80;99.90;;;;;;10343449;28;20026;-67
2023/12/29 23:55:41;;;;;;;0.85;0.60;;;9.80;99.90;;;;;;10357583;28;20054;-66
